Aérodrome :
LOGIN :

S'inscrire | Disclaimer

   EN    FR    IT 

 










Légende :    VFR   VFR Marginal   IFR   IFR Intensif   IFR Très Intensif
Visi : 
Plafond : 
>= 8 km
>= 3000ft
5 à 8 km
1000 à 3000 ft
1500m à 5 km
500 à 1000 ft
800 à 1500m
200 à 500 ft
< 800m
< 200 ft
Symboles :   Orages  Brouillard  Fortes neiges  Fortes précipitations  Vent > 20 kt
SIGMETs :   Divers  Orages  Givrage  Turbulence  Onde Orograph.  Cendres Volcan.







- Altitude de l'aérodrome : 74 ft
- Code IATA : EIN


EHEH - Eindhoven

DERNIER METAR :
  • 231155Z AUTO 07011KT 040V110 9999 FEW140 13/03 Q1015 BLU 08012KT CAVOK TEMPO 08012G22KT

METARs EXPIRÉS :
  • 231132Z AUTO 08011KT 040V130 9999 NCD 13/03 Q1015 BLU 08012KT CAVOK TEMPO 08012G22KT
  • 231055Z AUTO 08012KT 050V160 9999 FEW160 12/03 Q1015 BLU 08012KT 9999 FEW030 SCT230
  • 231025Z AUTO 07011KT 040V140 9999 FEW220 12/03 Q1015 BLU 08012KT 9999 FEW030 SCT230
  • 230955Z AUTO 09011KT 050V140 9999 NCD 11/03 Q1015 BLU 08012KT 9999 FEW030 SCT230
  • 230939Z AUTO 07013KT 070V140 9999 FEW230 11/03 Q1015 BLU 08012KT 9999 FEW030 SCT230
  • 230925Z AUTO 10009KT 050V140 9999 SCT029 11/03 Q1015 BLU 08010KT 9999 FEW022 SCT230

TAF TAF EHEH
Valide du 23 à 12h jusqu'au 24 à 18h UTC


231127Z 2312/2418 09012G22KT CAVOK
BECMG 2317/2319 06012KT
PROB40
TEMPO 2407/2417 06015G25KT
Pas de NOTAMs connus pour ce terrain.



MET'MAP, la Météo Aéronautique d'un coup d'oeil ! - Copyright ORBIFLY Décembre 2007 - Disclaimer

ORBIFLY MET'MAP TEAM :

Programmation & Développement : Alexandra Zaïnal
Conception & Développement : Baudouin d'Aumeries
Co-Programmation & Développement : Marc-Olivier Méhu
Soutien technique & logistique : Manuel Goepfert

Contact : metmap@orbifly.com




SOURCES & CREDITS :

   NOAA